createdAt,value
2022-08-14T00:00:19.327Z,21.14
2022-08-14T00:02:46.905Z,20.13
2022-08-14T00:05:21.496Z,19.66
2022-08-14T00:07:50.011Z,19.62
2022-08-14T00:10:51.825Z,19.75
2022-08-14T00:13:08.265Z,19.86
2022-08-14T00:15:43.932Z,19.79
2022-08-14T00:18:14.572Z,19.56
2022-08-14T00:20:58.526Z,19.68
2022-08-14T00:23:26.006Z,19.84
2022-08-14T00:26:05.574Z,20.30
2022-08-14T00:28:35.875Z,20.97
2022-08-14T00:31:05.654Z,20.64
2022-08-14T00:33:39.245Z,20.05
2022-08-14T00:36:37.054Z,20.78
2022-08-14T00:39:09.564Z,20.31
2022-08-14T00:41:38.796Z,22.38
2022-08-14T00:44:06.510Z,20.49
2022-08-14T00:46:33.693Z,21.00
2022-08-14T00:49:02.287Z,20.41
2022-08-14T00:51:36.728Z,21.88
2022-08-14T00:54:17.102Z,20.14
2022-08-14T00:56:49.715Z,20.21
2022-08-14T00:59:16.471Z,19.96
2022-08-14T01:01:44.775Z,19.54
2022-08-14T01:04:38.080Z,20.52
2022-08-14T01:07:05.024Z,19.50
2022-08-14T01:09:36.643Z,19.52
2022-08-14T01:12:05.020Z,20.34
2022-08-14T01:14:31.915Z,20.23
2022-08-14T01:16:59.986Z,19.83
2022-08-14T01:19:46.795Z,21.20
2022-08-14T01:22:18.982Z,20.19
2022-08-14T01:24:46.221Z,21.32
2022-08-14T01:27:19.104Z,20.76
2022-08-14T01:30:00.719Z,20.37
2022-08-14T01:32:37.272Z,20.05
2022-08-14T01:35:20.562Z,20.78
2022-08-14T01:37:58.058Z,20.24
2022-08-14T01:40:36.780Z,20.00
2022-08-14T01:43:18.813Z,20.62
2022-08-14T01:45:57.571Z,20.59
2022-08-14T01:48:37.164Z,20.07
2022-08-14T01:51:19.374Z,20.49
2022-08-14T01:53:55.367Z,21.08
2022-08-14T01:56:39.159Z,22.42
2022-08-14T01:59:06.251Z,20.37
2022-08-14T02:01:41.791Z,20.60
2022-08-14T02:04:40.686Z,21.30
2022-08-14T02:06:57.248Z,20.75
2022-08-14T02:09:24.541Z,21.42
2022-08-14T02:11:54.665Z,21.56
2022-08-14T02:14:31.538Z,21.03
2022-08-14T02:17:00.170Z,20.48
2022-08-14T02:19:32.203Z,21.33
2022-08-14T02:22:02.825Z,21.38
2022-08-14T02:24:40.341Z,21.61
2022-08-14T02:28:23.732Z,21.50
2022-08-14T02:30:01.988Z,20.99
2022-08-14T02:32:44.552Z,21.29
2022-08-14T02:35:19.267Z,23.36
2022-08-14T02:37:50.066Z,21.67
2022-08-14T02:40:19.602Z,20.50
2022-08-14T02:42:54.793Z,20.34
2022-08-14T02:45:38.784Z,20.71
2022-08-14T02:49:03.121Z,20.17
2022-08-14T02:51:02.668Z,20.42
2022-08-14T02:53:31.290Z,20.92
2022-08-14T02:56:02.464Z,21.05
2022-08-14T02:58:33.923Z,20.49
2022-08-14T03:01:04.862Z,21.21
2022-08-14T03:03:38.838Z,20.66
2022-08-14T03:06:07.091Z,21.10
2022-08-14T03:08:38.456Z,21.86
2022-08-14T03:11:09.391Z,21.38
2022-08-14T03:13:38.158Z,21.85
2022-08-14T03:16:09.076Z,21.55
2022-08-14T03:18:48.456Z,21.35
2022-08-14T03:21:22.270Z,21.11
2022-08-14T03:23:51.807Z,21.11
2022-08-14T03:26:30.546Z,21.27
2022-08-14T03:29:01.260Z,20.82
2022-08-14T03:31:30.090Z,20.92
2022-08-14T03:34:00.287Z,21.53
2022-08-14T03:37:28.699Z,21.31
2022-08-14T03:39:23.942Z,20.23
2022-08-14T03:41:56.139Z,20.56
2022-08-14T03:45:18.800Z,20.48
2022-08-14T03:47:15.545Z,21.13
2022-08-14T03:49:47.666Z,21.00
2022-08-14T03:52:37.962Z,20.61
2022-08-14T03:55:09.291Z,19.79
2022-08-14T03:57:37.309Z,20.62
2022-08-14T04:00:13.801Z,20.92
2022-08-14T04:02:58.404Z,21.77
2022-08-14T04:05:25.625Z,20.92
2022-08-14T04:08:08.308Z,20.63
2022-08-14T04:10:39.326Z,23.27
2022-08-14T04:13:06.566Z,24.09
2022-08-14T04:15:56.230Z,20.91
2022-08-14T04:18:22.348Z,21.92
2022-08-14T04:20:51.588Z,23.55
2022-08-14T04:23:32.770Z,22.54
2022-08-14T04:26:02.073Z,23.30
2022-08-14T04:29:02.225Z,21.36
2022-08-14T04:32:58.555Z,21.64
2022-08-14T04:34:07.928Z,21.27
2022-08-14T04:36:55.263Z,22.11
2022-08-14T04:39:46.196Z,21.15
2022-08-14T04:42:32.383Z,21.36
2022-08-14T04:45:01.114Z,20.77
2022-08-14T04:47:53.717Z,21.01
2022-08-14T04:50:31.385Z,26.19
2022-08-14T04:53:04.675Z,22.06
2022-08-14T04:55:31.867Z,21.39
2022-08-14T04:57:59.302Z,20.43
2022-08-14T05:00:27.538Z,21.34
2022-08-14T05:02:57.182Z,22.58
2022-08-14T05:05:25.394Z,21.04
2022-08-14T05:08:01.184Z,19.78
2022-08-14T05:10:32.050Z,20.88
2022-08-14T05:13:13.510Z,21.92
2022-08-14T05:15:42.028Z,20.76
2022-08-14T05:18:37.162Z,21.43
2022-08-14T05:21:54.598Z,19.82
2022-08-14T05:23:51.950Z,20.42
2022-08-14T05:26:21.610Z,21.32
2022-08-14T05:28:48.450Z,21.88
2022-08-14T05:31:20.803Z,23.48
2022-08-14T05:33:56.805Z,24.66
2022-08-14T05:36:27.039Z,23.88
2022-08-14T05:38:54.039Z,20.72
2022-08-14T05:41:22.494Z,20.24
2022-08-14T05:43:51.135Z,20.69
2022-08-14T05:46:22.932Z,20.58
2022-08-14T05:48:56.252Z,22.99
2022-08-14T05:51:25.882Z,22.70
2022-08-14T05:54:01.611Z,20.46
2022-08-14T05:56:39.947Z,20.07
2022-08-14T05:59:07.224Z,18.79
2022-08-14T06:01:34.721Z,19.28
2022-08-14T06:04:02.194Z,20.29
2022-08-14T06:06:36.455Z,19.41
2022-08-14T06:09:05.889Z,20.07
2022-08-14T06:11:37.528Z,19.27
2022-08-14T06:14:04.433Z,18.31
2022-08-14T06:16:39.333Z,20.19
2022-08-14T06:19:07.694Z,19.71
2022-08-14T06:21:42.364Z,18.56
2022-08-14T06:24:10.473Z,18.59
2022-08-14T06:26:54.143Z,18.95
2022-08-14T06:29:32.179Z,19.46
2022-08-14T06:32:37.742Z,18.34
2022-08-14T06:35:03.837Z,17.12
2022-08-14T06:37:58.493Z,17.39
2022-08-14T06:40:34.387Z,16.71
2022-08-14T06:43:11.713Z,18.70
2022-08-14T06:45:53.937Z,18.21
2022-08-14T06:48:25.226Z,16.82
2022-08-14T06:50:53.874Z,19.32
2022-08-14T06:53:22.037Z,16.01
2022-08-14T06:56:00.706Z,16.55
2022-08-14T06:58:30.793Z,16.06
2022-08-14T07:01:25.005Z,16.93
2022-08-14T07:04:22.744Z,17.34
2022-08-14T07:06:54.810Z,16.94
2022-08-14T07:09:25.869Z,16.07
2022-08-14T07:11:54.881Z,16.76
2022-08-14T07:14:23.154Z,15.41
2022-08-14T07:16:49.901Z,18.54
2022-08-14T07:19:21.050Z,17.69
2022-08-14T07:21:48.325Z,16.50
2022-08-14T07:24:21.695Z,17.52
2022-08-14T07:26:53.438Z,15.76
2022-08-14T07:29:26.129Z,18.22
2022-08-14T07:31:53.658Z,18.58
2022-08-14T07:34:36.335Z,15.63
2022-08-14T07:37:07.525Z,18.70
2022-08-14T07:39:36.862Z,19.33
2022-08-14T07:42:06.197Z,17.13
2022-08-14T07:44:45.936Z,18.80
2022-08-14T07:47:16.652Z,15.47
2022-08-14T07:49:58.857Z,15.80
2022-08-14T07:52:30.887Z,18.77
2022-08-14T07:55:01.173Z,17.92
2022-08-14T07:57:28.232Z,16.04
2022-08-14T07:59:55.183Z,16.19
2022-08-14T08:02:22.947Z,16.37
2022-08-14T08:04:59.180Z,16.59
2022-08-14T08:07:32.012Z,15.36
2022-08-14T08:10:02.450Z,17.54
2022-08-14T08:12:32.469Z,16.85
2022-08-14T08:15:02.663Z,15.63
2022-08-14T08:17:34.341Z,16.00
2022-08-14T08:20:01.972Z,15.86
2022-08-14T08:22:32.510Z,15.50
2022-08-14T08:25:00.696Z,17.80
2022-08-14T08:27:27.662Z,15.40
2022-08-14T08:30:10.169Z,16.73
2022-08-14T08:32:40.457Z,16.53
2022-08-14T08:35:11.394Z,15.66
2022-08-14T08:37:40.239Z,16.00
2022-08-14T08:40:11.237Z,14.49
2022-08-14T08:42:47.817Z,15.35
2022-08-14T08:45:22.124Z,16.07
2022-08-14T08:47:50.993Z,13.08
2022-08-14T08:53:08.385Z,13.74
2022-08-14T08:55:42.368Z,15.25
2022-08-14T08:58:12.624Z,14.99
2022-08-14T09:00:48.957Z,15.26
2022-08-14T09:03:20.621Z,15.05
2022-08-14T09:06:02.100Z,14.56
2022-08-14T09:08:33.542Z,16.44
2022-08-14T09:11:19.892Z,15.35
2022-08-14T09:13:53.079Z,16.38
2022-08-14T09:16:25.771Z,15.97
2022-08-14T09:18:54.620Z,15.28
2022-08-14T09:21:24.381Z,15.66
2022-08-14T09:24:28.119Z,15.41
2022-08-14T09:26:49.424Z,15.25
2022-08-14T09:29:17.995Z,15.84
2022-08-14T09:31:56.841Z,15.97
2022-08-14T09:35:08.513Z,14.37
2022-08-14T09:37:59.126Z,14.39
2022-08-14T09:40:34.534Z,14.13
2022-08-14T09:43:25.586Z,14.14
2022-08-14T09:45:58.293Z,14.34
2022-08-14T09:48:31.012Z,15.09
2022-08-14T09:54:18.075Z,15.96
2022-08-14T09:56:56.574Z,14.28
2022-08-14T09:59:25.601Z,14.63
2022-08-14T10:01:57.239Z,14.17
2022-08-14T10:04:36.007Z,13.54
2022-08-14T10:07:06.053Z,14.81
2022-08-14T10:09:57.649Z,13.68
2022-08-14T10:12:52.923Z,12.39
2022-08-14T10:15:25.103Z,12.27
2022-08-14T10:18:04.386Z,11.65
2022-08-14T10:20:44.944Z,13.05
2022-08-14T10:23:19.358Z,14.04
2022-08-14T10:25:54.340Z,12.76
2022-08-14T10:28:51.467Z,13.54
2022-08-14T10:31:26.793Z,12.65
2022-08-14T10:34:13.301Z,11.55
2022-08-14T10:36:47.662Z,11.10
2022-08-14T10:39:25.889Z,12.60
2022-08-14T10:42:16.461Z,12.06
2022-08-14T10:44:48.827Z,12.28
2022-08-14T10:47:41.210Z,11.18
2022-08-14T10:50:07.807Z,12.27
2022-08-14T10:52:43.048Z,11.33
2022-08-14T10:55:15.510Z,12.04
2022-08-14T10:57:53.600Z,13.26
2022-08-14T11:00:30.336Z,12.23
2022-08-14T11:03:10.928Z,11.35
2022-08-14T11:05:46.690Z,10.31
2022-08-14T11:08:17.372Z,11.95
2022-08-14T11:10:58.559Z,11.60
2022-08-14T11:13:30.024Z,10.37
2022-08-14T11:16:01.823Z,11.26
2022-08-14T11:18:35.695Z,11.04
2022-08-14T11:21:06.583Z,10.96
2022-08-14T11:23:38.180Z,11.89
2022-08-14T11:26:07.254Z,12.34
2022-08-14T11:28:47.522Z,11.22
2022-08-14T11:31:21.970Z,10.86
2022-08-14T11:33:58.101Z,11.46
2022-08-14T11:36:35.276Z,11.25
2022-08-14T11:39:34.842Z,11.36
2022-08-14T11:42:58.258Z,10.19
2022-08-14T11:45:04.191Z,9.95
2022-08-14T11:47:35.478Z,11.03
2022-08-14T11:50:33.685Z,11.55
2022-08-14T11:53:05.618Z,11.72
2022-08-14T11:55:36.272Z,11.17
2022-08-14T11:58:11.290Z,10.90
2022-08-14T12:00:53.762Z,10.36
2022-08-14T12:03:37.391Z,11.63
2022-08-14T12:06:29.106Z,11.52
2022-08-14T12:09:02.802Z,10.83
2022-08-14T12:11:43.179Z,10.28
2022-08-14T12:14:29.191Z,11.67
2022-08-14T12:17:11.946Z,10.05
2022-08-14T12:19:54.056Z,10.79
2022-08-14T12:22:43.163Z,11.33
2022-08-14T12:25:14.915Z,10.32
2022-08-14T12:27:53.459Z,10.24
2022-08-14T12:30:42.541Z,12.66
2022-08-14T12:33:33.723Z,9.92
2022-08-14T12:36:05.397Z,9.92
2022-08-14T12:38:44.958Z,10.97
2022-08-14T12:41:21.722Z,10.22
2022-08-14T12:44:01.873Z,8.58
2022-08-14T12:46:38.046Z,10.70
2022-08-14T12:49:17.766Z,10.05
2022-08-14T12:51:56.917Z,9.62
2022-08-14T12:54:28.487Z,10.35
2022-08-14T12:57:55.707Z,9.09
2022-08-14T13:00:25.664Z,9.82
2022-08-14T13:02:56.524Z,10.55
2022-08-14T13:05:30.230Z,10.99
2022-08-14T13:07:59.300Z,10.54
2022-08-14T13:10:46.678Z,11.14
2022-08-14T13:13:17.812Z,11.00
2022-08-14T13:15:47.098Z,9.69
2022-08-14T13:18:15.906Z,9.93
2022-08-14T13:20:49.796Z,8.54
2022-08-14T13:23:31.553Z,10.39
2022-08-14T13:25:59.366Z,10.24
2022-08-14T13:28:33.073Z,9.54
2022-08-14T13:31:11.033Z,9.64
2022-08-14T13:33:40.899Z,10.16
2022-08-14T13:36:10.006Z,10.50
2022-08-14T13:38:38.777Z,10.07
2022-08-14T13:41:06.548Z,9.29
2022-08-14T13:43:36.925Z,9.13
2022-08-14T13:46:19.404Z,9.59
2022-08-14T13:48:46.922Z,9.52
2022-08-14T13:51:16.669Z,10.31
2022-08-14T13:54:01.517Z,9.67
2022-08-14T13:56:42.294Z,9.00
2022-08-14T13:59:10.483Z,9.89
2022-08-14T14:01:43.361Z,9.68
2022-08-14T14:04:19.268Z,10.10
2022-08-14T14:06:49.597Z,9.40
2022-08-14T14:09:32.637Z,9.19
2022-08-14T14:12:37.859Z,10.03
2022-08-14T14:15:05.037Z,10.54
2022-08-14T14:17:32.840Z,10.58
2022-08-14T14:20:01.386Z,8.96
2022-08-14T14:22:35.559Z,9.65
2022-08-14T14:25:22.284Z,8.99
2022-08-14T14:27:53.405Z,8.59
2022-08-14T14:30:51.747Z,8.98
2022-08-14T14:33:42.169Z,10.48
2022-08-14T14:36:01.846Z,10.00
2022-08-14T14:38:33.927Z,8.98
2022-08-14T14:41:02.117Z,9.11
2022-08-14T14:43:29.265Z,8.46
2022-08-14T14:45:56.678Z,10.00
2022-08-14T14:48:28.306Z,9.35
2022-08-14T14:50:59.419Z,9.56
2022-08-14T14:53:28.510Z,9.94
2022-08-14T14:56:49.591Z,9.20
2022-08-14T14:58:46.505Z,9.90
2022-08-14T15:01:17.453Z,8.97
2022-08-14T15:03:46.162Z,10.48
2022-08-14T15:06:13.150Z,9.42
2022-08-14T15:08:58.365Z,9.52
2022-08-14T15:11:30.290Z,9.18
2022-08-14T15:14:00.283Z,9.91
2022-08-14T15:16:28.520Z,9.79
2022-08-14T15:18:55.346Z,9.69
2022-08-14T15:21:22.811Z,9.22
2022-08-14T15:23:50.665Z,9.38
2022-08-14T15:26:23.814Z,9.59
2022-08-14T15:29:05.162Z,9.86
2022-08-14T15:31:36.626Z,10.11
2022-08-14T15:34:45.553Z,11.09
2022-08-14T15:37:06.524Z,9.49
2022-08-14T15:39:38.701Z,9.53
2022-08-14T15:42:16.220Z,10.78
2022-08-14T15:44:57.492Z,10.11
2022-08-14T15:47:29.372Z,11.10
2022-08-14T15:50:01.415Z,11.43
2022-08-14T15:52:32.974Z,10.28
2022-08-14T15:55:14.521Z,10.12
2022-08-14T15:58:02.025Z,10.13
2022-08-14T16:00:51.815Z,10.18
2022-08-14T16:03:27.581Z,9.94
2022-08-14T16:06:15.553Z,9.53
2022-08-14T16:08:46.913Z,9.88
2022-08-14T16:11:17.933Z,9.12
2022-08-14T16:13:47.562Z,10.24
2022-08-14T16:16:50.903Z,9.97
2022-08-14T16:19:23.619Z,10.40
2022-08-14T16:22:02.126Z,9.69
2022-08-14T16:24:59.790Z,10.28
2022-08-14T16:27:39.678Z,10.30
2022-08-14T16:30:25.277Z,11.12
2022-08-14T16:32:57.019Z,11.40
2022-08-14T16:35:43.500Z,10.28
2022-08-14T16:38:19.553Z,10.87
2022-08-14T16:41:27.112Z,11.43
2022-08-14T16:44:01.332Z,10.13
2022-08-14T16:46:32.525Z,10.16
2022-08-14T16:49:00.669Z,11.69
2022-08-14T16:51:31.177Z,11.87
2022-08-14T16:54:05.389Z,12.27
2022-08-14T16:56:52.519Z,12.94
2022-08-14T16:59:30.717Z,12.18
2022-08-14T17:02:11.733Z,11.83
2022-08-14T17:04:41.063Z,11.60
2022-08-14T17:07:14.119Z,12.24
2022-08-14T17:09:47.352Z,12.55
2022-08-14T17:12:35.196Z,11.96
2022-08-14T17:15:09.766Z,11.60
2022-08-14T17:17:39.878Z,11.95
2022-08-14T17:20:39.467Z,11.88
2022-08-14T17:23:11.365Z,12.47
2022-08-14T17:25:39.075Z,12.93
2022-08-14T17:28:50.008Z,12.63
2022-08-14T17:31:07.892Z,13.16
2022-08-14T17:33:40.992Z,14.01
2022-08-14T17:36:20.205Z,14.18
2022-08-14T17:39:17.833Z,14.39
2022-08-14T17:42:03.261Z,13.77
2022-08-14T17:44:44.835Z,15.63
2022-08-14T17:47:17.882Z,14.42
2022-08-14T17:49:52.146Z,13.81
2022-08-14T17:52:35.871Z,13.64
2022-08-14T17:56:00.839Z,13.76
2022-08-14T17:57:58.656Z,14.05
2022-08-14T18:00:26.319Z,14.17
2022-08-14T18:02:55.313Z,14.54
2022-08-14T18:06:06.584Z,15.27
2022-08-14T18:08:32.019Z,14.99
2022-08-14T18:11:00.043Z,15.35
2022-08-14T18:13:51.572Z,16.17
2022-08-14T18:16:20.574Z,15.68
2022-08-14T18:18:51.139Z,15.44
2022-08-14T18:21:25.494Z,15.72
2022-08-14T18:24:28.274Z,14.99
2022-08-14T18:27:23.426Z,15.39
2022-08-14T18:30:32.377Z,14.80
2022-08-14T18:32:55.106Z,15.41
2022-08-14T18:35:46.022Z,14.58
2022-08-14T18:38:25.963Z,15.62
2022-08-14T18:41:25.457Z,16.11
2022-08-14T18:44:04.506Z,16.87
2022-08-14T18:47:14.756Z,16.26
2022-08-14T18:49:57.876Z,17.49
2022-08-14T18:52:39.925Z,16.22
2022-08-14T18:55:18.516Z,16.27
2022-08-14T18:58:27.429Z,16.84
2022-08-14T19:00:56.058Z,17.30
2022-08-14T19:03:36.740Z,17.80
2022-08-14T19:06:05.720Z,17.19
2022-08-14T19:08:45.510Z,17.48
2022-08-14T19:11:39.724Z,17.63
2022-08-14T19:14:08.007Z,17.97
2022-08-14T19:16:43.017Z,17.46
2022-08-14T19:19:15.396Z,17.95
2022-08-14T19:21:56.001Z,17.76
2022-08-14T19:24:44.304Z,18.00
2022-08-14T19:27:23.046Z,17.19
2022-08-14T19:29:51.793Z,18.17
2022-08-14T19:32:39.636Z,17.51
2022-08-14T19:35:49.606Z,18.08
2022-08-14T19:38:44.493Z,18.45
2022-08-14T19:41:17.748Z,19.00
2022-08-14T19:43:55.642Z,18.02
2022-08-14T19:46:38.085Z,18.38
2022-08-14T19:49:23.010Z,17.53
2022-08-14T19:52:04.703Z,18.22
2022-08-14T19:54:45.009Z,17.93
2022-08-14T19:57:29.632Z,17.90
2022-08-14T20:00:04.560Z,18.77
2022-08-14T20:02:39.058Z,19.27
2022-08-14T20:05:08.117Z,18.56
2022-08-14T20:07:59.871Z,18.96
2022-08-14T20:11:04.939Z,17.92
2022-08-14T20:13:29.371Z,18.79
2022-08-14T20:16:12.112Z,17.54
2022-08-14T20:18:49.526Z,18.23
2022-08-14T20:21:18.608Z,18.13
2022-08-14T20:23:48.251Z,18.50
2022-08-14T20:26:30.840Z,18.52
2022-08-14T20:29:04.844Z,18.71
2022-08-14T20:31:37.086Z,19.23
2022-08-14T20:34:06.417Z,20.19
2022-08-14T20:36:40.499Z,21.34
2022-08-14T20:39:15.275Z,18.74
2022-08-14T20:41:51.291Z,20.45
2022-08-14T20:44:40.777Z,18.42
2022-08-14T20:47:15.105Z,18.62
2022-08-14T20:49:41.898Z,19.95
2022-08-14T20:52:19.077Z,18.80
2022-08-14T20:54:51.438Z,18.34
2022-08-14T20:57:19.863Z,18.50
2022-08-14T20:59:52.986Z,19.73
2022-08-14T21:02:34.390Z,18.18
2022-08-14T21:05:16.728Z,19.86
2022-08-14T21:07:51.155Z,19.09
2022-08-14T21:10:33.207Z,21.32
2022-08-14T21:14:09.307Z,19.16
2022-08-14T21:15:57.621Z,20.30
2022-08-14T21:18:35.231Z,19.78
2022-08-14T21:21:18.512Z,20.13
2022-08-14T21:23:54.985Z,18.76
2022-08-14T21:26:51.420Z,19.76
2022-08-14T21:29:21.026Z,20.01
2022-08-14T21:31:56.147Z,20.31
2022-08-14T21:34:30.960Z,20.15
2022-08-14T21:37:08.862Z,18.48
2022-08-14T21:39:37.151Z,19.21
2022-08-14T21:42:06.303Z,19.46
2022-08-14T21:44:42.534Z,19.96
2022-08-14T21:47:13.062Z,20.12
2022-08-14T21:49:43.033Z,19.23
2022-08-14T21:52:51.556Z,18.23
2022-08-14T21:55:09.808Z,19.06
2022-08-14T21:58:38.394Z,18.47
2022-08-14T22:00:39.406Z,19.33
2022-08-14T22:03:17.239Z,20.14
2022-08-14T22:05:48.023Z,19.79
2022-08-14T22:08:16.754Z,20.05
2022-08-14T22:10:47.413Z,19.88
2022-08-14T22:13:22.588Z,20.68
2022-08-14T22:15:54.312Z,18.42
2022-08-14T22:18:25.539Z,19.46
2022-08-14T22:20:56.670Z,18.25
2022-08-14T22:23:25.784Z,19.15
2022-08-14T22:25:55.243Z,19.04
2022-08-14T22:28:32.967Z,18.56
2022-08-14T22:31:03.319Z,17.97
2022-08-14T22:33:30.927Z,18.57
2022-08-14T22:36:00.412Z,19.06
2022-08-14T22:38:37.327Z,19.18
2022-08-14T22:41:26.910Z,20.04
2022-08-14T22:43:57.333Z,18.37
2022-08-14T22:46:27.129Z,20.59
2022-08-14T22:48:54.728Z,21.12
2022-08-14T22:51:27.673Z,20.85
2022-08-14T22:53:56.863Z,19.23
2022-08-14T22:56:30.106Z,18.54
2022-08-14T22:59:03.480Z,19.50
2022-08-14T23:01:56.107Z,18.16
2022-08-14T23:04:35.290Z,19.02
2022-08-14T23:07:21.893Z,21.29
2022-08-14T23:10:32.878Z,20.69
2022-08-14T23:12:54.817Z,21.39
2022-08-14T23:15:23.418Z,20.70
2022-08-14T23:17:50.300Z,20.80
2022-08-14T23:20:21.183Z,19.30
2022-08-14T23:22:51.839Z,19.09
2022-08-14T23:25:57.838Z,18.03
2022-08-14T23:28:33.634Z,18.98
2022-08-14T23:31:01.299Z,18.80
2022-08-14T23:33:28.712Z,17.92
2022-08-14T23:35:58.625Z,18.05
2022-08-14T23:38:30.519Z,21.25
2022-08-14T23:41:00.862Z,19.43
2022-08-14T23:43:31.127Z,18.05
2022-08-14T23:45:58.937Z,17.76
2022-08-14T23:48:28.560Z,17.80
2022-08-14T23:50:56.458Z,17.78
2022-08-14T23:53:28.217Z,18.59
2022-08-14T23:55:57.394Z,18.51
2022-08-14T23:58:29.715Z,18.42
